Time;durP1;ratioP1;P1;durP2;ratioP2;P2;SDS_P1;SDS_P2;PMS_P1;PMS_P2;Temp;Humidity;BMP_temperature;BMP_pressure;BME280_temperature;BME280_humidity;BME280_pressure;Samples;Min_cycle;Max_cycle;Signal;HPM_P1;HPM_P2
2022/09/10 00:00:31;;;;;;;9.77;2.33;;;20.90;99.90;;;;;;5031084;28;20049;-69
2022/09/10 00:03:35;;;;;;;9.85;2.58;;;20.90;99.90;;;;;;5030629;28;20045;-69
2022/09/10 00:06:39;;;;;;;7.53;2.13;;;20.90;99.90;;;;;;5030580;28;20060;-69
2022/09/10 00:09:44;;;;;;;10.38;2.30;;;20.80;99.90;;;;;;5030800;28;20069;-69
2022/09/10 00:12:48;;;;;;;8.57;2.20;;;20.70;99.90;;;;;;5030730;28;20048;-69
2022/09/10 00:15:53;;;;;;;9.32;2.25;;;20.70;99.90;;;;;;5030233;28;20053;-69
2022/09/10 00:19:17;;;;;;;7.95;1.73;;;20.60;99.90;;;;;;5030761;28;20052;-68
2022/09/10 00:22:21;;;;;;;9.15;2.05;;;20.50;99.90;;;;;;5030634;28;20044;-69
2022/09/10 00:25:29;;;;;;;7.68;1.80;;;20.40;99.90;;;;;;5030476;28;20064;-68
2022/09/10 00:28:33;;;;;;;18.27;3.33;;;20.40;99.90;;;;;;5030789;28;20318;-68
2022/09/10 00:31:56;;;;;;;14.10;4.43;;;20.40;99.90;;;;;;5030411;28;20049;-68
2022/09/10 00:35:00;;;;;;;8.93;2.28;;;20.40;99.90;;;;;;5030109;28;20048;-69
2022/09/10 00:38:23;;;;;;;11.43;2.05;;;20.40;99.90;;;;;;5030411;28;20072;-69
2022/09/10 00:41:47;;;;;;;12.43;2.15;;;20.40;99.90;;;;;;5029928;28;20044;-68
2022/09/10 00:44:58;;;;;;;11.32;2.20;;;20.30;99.90;;;;;;5030138;28;20384;-68
2022/09/10 00:48:23;;;;;;;9.25;1.98;;;20.30;99.90;;;;;;5030161;28;20396;-68
2022/09/10 00:51:31;;;;;;;11.95;2.40;;;20.30;99.90;;;;;;5029655;28;20064;-68
2022/09/10 00:54:37;;;;;;;8.50;2.17;;;20.30;99.90;;;;;;5029045;28;20511;-69
2022/09/10 00:58:02;;;;;;;7.30;1.80;;;20.40;99.90;;;;;;5029904;28;20036;-69
2022/09/10 01:01:07;;;;;;;9.23;2.15;;;20.40;99.90;;;;;;5030254;28;20048;-68
2022/09/10 01:04:11;;;;;;;9.68;2.33;;;20.40;99.90;;;;;;5028792;28;20052;-69
2022/09/10 01:07:15;;;;;;;8.25;1.90;;;20.40;99.90;;;;;;5029465;28;20056;-69
2022/09/10 01:10:27;;;;;;;9.80;1.98;;;20.40;99.90;;;;;;5028918;28;20037;-68
2022/09/10 01:13:57;;;;;;;15.27;3.95;;;20.40;99.90;;;;;;5029077;28;20068;-68
2022/09/10 01:17:04;;;;;;;9.13;1.90;;;20.30;99.90;;;;;;5028576;28;20719;-69
2022/09/10 01:20:18;;;;;;;9.65;2.40;;;20.30;99.90;;;;;;5028927;28;20053;-69
2022/09/10 01:23:59;;;;;;;8.18;2.50;;;20.30;99.90;;;;;;5029715;28;20056;-69
2022/09/10 01:27:22;;;;;;;12.88;2.13;;;20.30;99.90;;;;;;5028556;28;20045;-68
2022/09/10 01:30:34;;;;;;;13.00;2.20;;;20.30;99.90;;;;;;5029120;28;20048;-69
2022/09/10 01:33:50;;;;;;;12.05;2.50;;;20.30;99.90;;;;;;5028404;28;20048;-68
2022/09/10 01:37:02;;;;;;;11.13;1.98;;;20.30;99.90;;;;;;5028867;28;20499;-68
2022/09/10 01:40:07;;;;;;;12.38;2.42;;;20.40;99.90;;;;;;5028734;28;20109;-68
2022/09/10 01:43:12;;;;;;;14.77;2.03;;;20.40;99.90;;;;;;5028408;28;20531;-68
2022/09/10 01:46:44;;;;;;;14.43;2.90;;;20.30;99.90;;;;;;5028660;28;20036;-68
2022/09/10 01:50:15;;;;;;;7.75;1.85;;;20.30;99.90;;;;;;5029616;28;20052;-68
2022/09/10 01:53:29;;;;;;;8.75;1.58;;;20.30;99.90;;;;;;5028469;28;20404;-68
2022/09/10 01:56:55;;;;;;;10.30;1.95;;;20.30;99.90;;;;;;5028735;28;20048;-69
2022/09/10 02:00:08;;;;;;;6.18;1.63;;;20.20;99.90;;;;;;5028838;28;20388;-69
2022/09/10 02:03:40;;;;;;;8.25;1.80;;;20.30;99.90;;;;;;5029607;28;20048;-69
2022/09/10 02:06:49;;;;;;;8.90;2.17;;;20.40;99.90;;;;;;5028465;28;20053;-69
2022/09/10 02:09:54;;;;;;;13.70;2.63;;;20.30;99.90;;;;;;5028961;28;20044;-68
2022/09/10 02:12:59;;;;;;;9.73;1.88;;;20.30;99.90;;;;;;5028785;28;20048;-69
2022/09/10 02:16:36;;;;;;;9.48;1.95;;;20.20;99.90;;;;;;5028858;28;20040;-69
2022/09/10 02:19:44;;;;;;;11.70;2.53;;;20.20;99.90;;;;;;5029415;28;20048;-68
2022/09/10 02:23:09;;;;;;;12.38;2.10;;;20.20;99.90;;;;;;5031802;28;20412;-69
2022/09/10 02:26:13;;;;;;;9.07;2.10;;;20.20;99.90;;;;;;5031842;28;20060;-68
2022/09/10 02:29:18;;;;;;;12.38;2.17;;;20.20;99.90;;;;;;5032815;28;20044;-68
2022/09/10 02:32:22;;;;;;;8.60;2.05;;;20.30;99.90;;;;;;5031660;28;20044;-67
2022/09/10 02:35:30;;;;;;;6.95;2.20;;;20.30;99.90;;;;;;5031108;28;20602;-69
2022/09/10 02:38:34;;;;;;;10.50;2.25;;;20.30;99.90;;;;;;5031536;28;20040;-69
2022/09/10 02:41:40;;;;;;;8.68;2.08;;;20.10;99.90;;;;;;5031805;28;20044;-69
2022/09/10 02:48:46;;;;;;;11.07;2.90;;;19.80;99.90;;;;;;5031798;28;20079;-69
2022/09/10 02:51:50;;;;;;;11.07;2.72;;;19.70;99.90;;;;;;5031956;28;20057;-69
2022/09/10 02:54:55;;;;;;;8.35;1.90;;;19.70;99.90;;;;;;5031150;28;20049;-68
2022/09/10 02:57:59;;;;;;;11.75;1.98;;;19.80;99.90;;;;;;5031610;28;20076;-68
2022/09/10 03:01:15;;;;;;;11.30;2.42;;;19.80;99.90;;;;;;5031559;28;20207;-68
2022/09/10 03:04:20;;;;;;;18.40;3.78;;;19.60;99.90;;;;;;5030576;28;20053;-68
2022/09/10 03:10:46;;;;;;;;;;;19.40;99.90;;;;;;5032720;28;20056;-68
2022/09/10 03:13:50;;;;;;;8.57;2.35;;;19.30;99.90;;;;;;5031738;28;19909;-68
2022/09/10 03:16:55;;;;;;;15.50;3.08;;;19.30;99.90;;;;;;5031215;28;20041;-68
2022/09/10 03:20:03;;;;;;;11.52;2.90;;;19.30;99.90;;;;;;5031139;28;20052;-68
2022/09/10 03:23:07;;;;;;;13.38;2.47;;;19.20;99.90;;;;;;5030934;28;20041;-68
2022/09/10 03:26:14;;;;;;;6.95;1.90;;;19.30;99.90;;;;;;5030877;28;20060;-67
2022/09/10 03:29:18;;;;;;;6.20;2.25;;;19.20;99.90;;;;;;5019337;28;20045;-67
2022/09/10 03:32:40;;;;;;;2.60;1.30;;;19.10;99.90;;;;;;5032029;28;20041;-68
2022/09/10 03:35:51;;;;;;;9.20;2.10;;;19.10;99.90;;;;;;5031427;28;20380;-68
2022/09/10 03:38:54;;;;;;;8.45;2.42;;;19.20;99.90;;;;;;5030622;28;20044;-68
2022/09/10 03:42:17;;;;;;;6.32;1.63;;;19.20;99.90;;;;;;5031632;28;20499;-69
2022/09/10 03:45:40;;;;;;;5.82;1.40;;;19.20;99.90;;;;;;5030148;28;20053;-69
2022/09/10 03:48:46;;;;;;;5.57;1.63;;;19.30;99.90;;;;;;5030302;28;20045;-68
2022/09/10 03:52:11;;;;;;;7.40;1.58;;;19.30;99.90;;;;;;5031361;28;20044;-68
2022/09/10 03:55:16;;;;;;;7.00;1.80;;;19.20;99.90;;;;;;5029775;28;20048;-68
2022/09/10 03:58:23;;;;;;;8.98;2.10;;;19.20;99.90;;;;;;5030047;28;20052;-68
2022/09/10 04:01:28;;;;;;;5.10;1.67;;;19.10;99.90;;;;;;5029776;28;20117;-69
2022/09/10 04:04:33;;;;;;;5.85;1.42;;;19.20;99.90;;;;;;5029930;28;20049;-68
2022/09/10 04:07:37;;;;;;;6.05;1.45;;;19.20;99.90;;;;;;5030423;28;20052;-68
2022/09/10 04:10:43;;;;;;;5.35;1.52;;;19.20;99.90;;;;;;5029919;28;20052;-69
2022/09/10 04:13:47;;;;;;;4.50;1.38;;;19.10;99.90;;;;;;5029500;28;20052;-68
2022/09/10 04:17:11;;;;;;;12.00;2.03;;;19.00;99.90;;;;;;5029667;28;20049;-68
2022/09/10 04:20:18;;;;;;;5.88;2.00;;;18.90;99.90;;;;;;5029719;28;20511;-69
2022/09/10 04:23:22;;;;;;;7.40;1.50;;;18.80;99.90;;;;;;5030017;28;20052;-68
2022/09/10 04:26:27;;;;;;;4.28;1.35;;;18.80;99.90;;;;;;5029447;28;20403;-69
2022/09/10 04:29:31;;;;;;;6.15;1.80;;;18.70;99.90;;;;;;5030286;28;20514;-69
2022/09/10 04:32:55;;;;;;;7.32;1.50;;;18.50;99.90;;;;;;5029910;28;20060;-69
2022/09/10 04:35:59;;;;;;;6.78;2.05;;;18.20;99.90;;;;;;5030578;28;20040;-69
2022/09/10 04:39:04;;;;;;;12.93;1.85;;;18.20;99.90;;;;;;5030497;28;20096;-68
2022/09/10 04:42:27;;;;;;;9.32;2.10;;;18.20;99.90;;;;;;5030754;28;20511;-69
2022/09/10 04:45:33;;;;;;;6.85;2.15;;;18.20;99.90;;;;;;5030849;28;20045;-68
2022/09/10 04:48:56;;;;;;;9.90;1.92;;;18.20;99.90;;;;;;5029995;28;20061;-68
2022/09/10 04:52:01;;;;;;;9.45;1.95;;;18.20;99.90;;;;;;5030376;28;20040;-68
2022/09/10 04:55:06;;;;;;;7.57;2.00;;;18.30;99.90;;;;;;5030903;28;20044;-68
2022/09/10 04:58:12;;;;;;;11.13;3.88;;;18.40;99.90;;;;;;5031251;28;20048;-68
2022/09/10 05:01:36;;;;;;;6.93;3.25;;;18.50;99.90;;;;;;5030322;28;20048;-69
2022/09/10 05:04:40;;;;;;;4.70;2.05;;;18.60;99.90;;;;;;5029747;28;20085;-69
2022/09/10 05:07:44;;;;;;;6.45;2.15;;;18.30;99.90;;;;;;5030176;28;20048;-69
2022/09/10 05:10:48;;;;;;;11.73;2.42;;;18.00;99.90;;;;;;5031299;28;20048;-69
2022/09/10 05:13:53;;;;;;;6.45;1.95;;;17.90;99.90;;;;;;5030136;28;20380;-68
2022/09/10 05:17:00;;;;;;;6.93;2.28;;;17.90;99.90;;;;;;5029955;28;20052;-68
2022/09/10 05:20:06;;;;;;;8.05;2.20;;;17.90;99.90;;;;;;5029389;28;20400;-69
2022/09/10 05:23:15;;;;;;;8.52;2.00;;;17.90;99.90;;;;;;5030052;28;20048;-69
2022/09/10 05:26:38;;;;;;;7.95;1.77;;;17.80;99.90;;;;;;5018620;28;20048;-69
2022/09/10 05:30:03;;;;;;;7.00;1.77;;;17.70;99.90;;;;;;5029755;28;20048;-69
2022/09/10 05:33:07;;;;;;;7.20;2.10;;;17.60;99.90;;;;;;5029404;28;20056;-69
2022/09/10 05:36:32;;;;;;;6.88;2.13;;;17.70;99.90;;;;;;5030766;28;20032;-68
2022/09/10 05:39:36;;;;;;;5.55;1.83;;;17.90;99.90;;;;;;5030039;28;20056;-69
2022/09/10 05:42:40;;;;;;;8.35;1.98;;;18.10;99.90;;;;;;5030795;28;20491;-69
2022/09/10 05:45:45;;;;;;;7.32;1.65;;;18.20;99.90;;;;;;5030900;28;20504;-68
2022/09/10 05:48:53;;;;;;;9.73;2.60;;;18.30;99.90;;;;;;5029438;28;20040;-68
2022/09/10 05:51:57;;;;;;;13.10;2.97;;;18.60;99.90;;;;;;5029432;28;20048;-68
2022/09/10 05:55:03;;;;;;;16.50;3.53;;;20.00;99.90;;;;;;5032082;28;20041;-69
2022/09/10 05:58:08;;;;;;;12.40;2.55;;;23.00;99.90;;;;;;5033008;28;20423;-69
2022/09/10 06:01:34;;;;;;;8.70;1.95;;;24.50;99.90;;;;;;5033485;28;20040;-69
2022/09/10 06:04:41;;;;;;;9.63;2.65;;;25.80;99.90;;;;;;5032731;28;20528;-69
2022/09/10 06:08:03;;;;;;;7.70;2.40;;;27.70;99.90;;;;;;5033921;28;20173;-68
2022/09/10 06:11:48;;;;;;;8.55;2.45;;;29.30;99.90;;;;;;5034225;28;20045;-68
2022/09/10 06:14:53;;;;;;;8.57;2.95;;;27.20;99.90;;;;;;5032576;28;20044;-68
2022/09/10 06:17:58;;;;;;;8.35;2.85;;;27.40;99.90;;;;;;5033055;28;20064;-68
2022/09/10 06:21:12;;;;;;;6.95;2.40;;;28.30;99.90;;;;;;5033195;28;20400;-69
2022/09/10 06:24:19;;;;;;;11.45;3.67;;;29.00;99.90;;;;;;5032767;28;20502;-69
2022/09/10 06:27:24;;;;;;;18.10;3.55;;;29.10;99.90;;;;;;5033139;28;20049;-69
2022/09/10 06:30:28;;;;;;;6.30;2.38;;;29.00;99.90;;;;;;5032213;28;20049;-66
2022/09/10 06:33:52;;;;;;;6.88;2.30;;;30.70;99.90;;;;;;5032922;28;20526;-69
2022/09/10 06:37:01;;;;;;;9.18;2.13;;;30.70;99.90;;;;;;5032879;28;20045;-69
2022/09/10 06:40:28;;;;;;;7.15;2.25;;;32.20;99.90;;;;;;5032732;28;20594;-69
2022/09/10 06:43:35;;;;;;;4.93;2.10;;;33.50;99.80;;;;;;5033657;28;20052;-68
2022/09/10 06:46:55;;;;;;;8.60;1.65;;;33.20;99.20;;;;;;5032855;28;20049;-68
2022/09/10 06:50:03;;;;;;;6.03;2.30;;;33.60;97.70;;;;;;5032833;28;20052;-68
2022/09/10 06:53:10;;;;;;;6.63;2.10;;;30.80;99.90;;;;;;5032595;28;20057;-69
2022/09/10 06:56:16;;;;;;;6.13;2.53;;;29.50;99.90;;;;;;5031767;28;20044;-69
2022/09/10 06:59:21;;;;;;;7.90;2.97;;;27.50;99.90;;;;;;5032573;28;20416;-68
2022/09/10 07:02:26;;;;;;;8.90;2.75;;;28.00;99.90;;;;;;5032006;28;20049;-68
2022/09/10 07:09:00;;;;;;;4.18;1.92;;;28.90;99.90;;;;;;5032024;28;20507;-68
2022/09/10 07:12:10;;;;;;;5.80;2.30;;;30.20;99.90;;;;;;5031868;28;20039;-69
2022/09/10 07:15:16;;;;;;;7.75;2.53;;;31.20;99.90;;;;;;5031942;28;20045;-68
2022/09/10 07:18:21;;;;;;;12.10;2.47;;;32.70;99.30;;;;;;5031945;28;20047;-68
2022/09/10 07:21:26;;;;;;;6.50;2.03;;;31.90;99.00;;;;;;5032692;28;20049;-68
2022/09/10 07:24:33;;;;;;;7.82;2.10;;;31.30;99.20;;;;;;5032067;28;20052;-69
2022/09/10 07:28:03;;;;;;;3.83;1.58;;;27.90;99.90;;;;;;5031037;28;20060;-68
2022/09/10 07:31:32;;;;;;;7.53;2.00;;;28.70;99.90;;;;;;5032733;28;20052;-68
2022/09/10 07:35:01;;;;;;;5.03;1.90;;;30.70;99.90;;;;;;5031802;28;20484;-69
2022/09/10 07:38:12;;;;;;;10.00;2.47;;;32.00;99.50;;;;;;5030951;28;20531;-68
2022/09/10 07:41:18;;;;;;;;;;;31.60;99.40;;;;;;5031944;28;20032;-68
2022/09/10 07:44:24;;;;;;;5.75;2.03;;;31.40;99.80;;;;;;5030826;28;19909;-68
2022/09/10 07:47:48;;;;;;;6.97;1.85;;;32.40;99.20;;;;;;5031535;28;20052;-68
2022/09/10 07:54:24;;;;;;;6.63;1.50;;;36.30;93.20;;;;;;5031260;28;20056;-69
2022/09/10 07:57:35;;;;;;;6.43;1.25;;;37.00;92.30;;;;;;5031300;28;20088;-69
2022/09/10 08:00:41;;;;;;;10.00;1.60;;;36.70;90.50;;;;;;5030839;28;20495;-68
2022/09/10 08:03:47;;;;;;;12.23;2.00;;;36.40;90.30;;;;;;5031087;28;20044;-69
2022/09/10 08:06:55;;;;;;;16.13;2.72;;;36.70;90.90;;;;;;5030926;28;20044;-69
2022/09/10 08:09:59;;;;;;;7.00;1.58;;;37.00;89.40;;;;;;5031280;28;20280;-68
2022/09/10 08:13:22;;;;;;;6.00;1.10;;;37.80;87.70;;;;;;5031912;28;20516;-68
2022/09/10 08:16:27;;;;;;;6.60;1.23;;;37.10;84.90;;;;;;5030571;28;20044;-68
2022/09/10 08:19:35;;;;;;;5.07;1.50;;;37.50;87.00;;;;;;5030489;28;20049;-68
2022/09/10 08:22:39;;;;;;;7.95;1.45;;;39.20;84.90;;;;;;5030734;28;20044;-67
2022/09/10 08:25:50;;;;;;;10.27;1.50;;;39.50;83.70;;;;;;5030182;28;20068;-68
2022/09/10 08:28:56;;;;;;;9.32;1.73;;;39.20;82.60;;;;;;5030527;28;20065;-68
2022/09/10 08:32:03;;;;;;;5.43;1.38;;;39.00;82.80;;;;;;5029919;28;20052;-68
2022/09/10 08:35:09;;;;;;;11.05;1.80;;;36.30;83.30;;;;;;5030548;28;20052;-67
2022/09/10 08:38:13;;;;;;;10.40;1.30;;;34.40;85.80;;;;;;5030056;28;20108;-68
2022/09/10 08:41:20;;;;;;;6.47;1.65;;;34.30;87.10;;;;;;5030332;28;20052;-68
2022/09/10 08:44:34;;;;;;;8.20;1.52;;;35.30;87.10;;;;;;5030008;28;20040;-69
2022/09/10 08:47:57;;;;;;;4.63;1.60;;;36.50;84.70;;;;;;5030126;28;20511;-68
2022/09/10 08:51:12;;;;;;;5.05;1.30;;;36.40;85.30;;;;;;5030162;28;20048;-68
2022/09/10 08:54:58;;;;;;;5.97;1.17;;;38.50;82.50;;;;;;5030156;28;20044;-68
2022/09/10 08:58:06;;;;;;;5.75;1.35;;;38.60;80.50;;;;;;5029998;28;20041;-68
2022/09/10 09:01:34;;;;;;;7.10;1.67;;;37.50;81.40;;;;;;5030747;28;20044;-68
2022/09/10 09:04:49;;;;;;;6.57;1.40;;;37.80;81.60;;;;;;5029477;28;20032;-69
2022/09/10 09:07:58;;;;;;;9.52;1.58;;;37.60;80.90;;;;;;5018851;28;20048;-68
2022/09/10 09:11:39;;;;;;;6.10;1.27;;;36.50;79.30;;;;;;5030074;28;20397;-68
2022/09/10 09:15:01;;;;;;;6.07;1.75;;;35.90;82.00;;;;;;5029422;28;20045;-68
2022/09/10 09:18:50;;;;;;;4.90;1.35;;;35.90;84.10;;;;;;5029761;28;20040;-67
2022/09/10 09:22:07;;;;;;;6.38;1.58;;;37.60;80.40;;;;;;5022757;28;20048;-69
2022/09/10 09:25:31;;;;;;;6.78;1.50;;;35.50;83.00;;;;;;5029328;28;20407;-67
2022/09/10 09:29:19;;;;;;;8.30;1.40;;;36.70;82.70;;;;;;5031739;28;20048;-69
2022/09/10 09:32:27;;;;;;;9.88;2.20;;;31.90;87.90;;;;;;5033477;28;20036;-68
2022/09/10 09:35:41;;;;;;;5.95;1.50;;;34.50;85.90;;;;;;5033552;28;20040;-68
2022/09/10 09:38:48;;;;;;;4.82;1.65;;;34.70;84.50;;;;;;5033889;28;20044;-67
2022/09/10 09:42:00;;;;;;;8.73;1.60;;;32.30;89.00;;;;;;5033507;28;20384;-67
2022/09/10 09:45:42;;;;;;;8.68;1.60;;;28.90;91.80;;;;;;5033759;28;20398;-68
2022/09/10 09:48:53;;;;;;;6.68;1.58;;;28.90;93.00;;;;;;5033335;28;20400;-69
2022/09/10 09:52:01;;;;;;;7.88;1.80;;;28.10;92.90;;;;;;5032999;28;20040;-68
2022/09/10 09:55:34;;;;;;;9.45;2.10;;;30.00;92.50;;;;;;5033926;28;20044;-68
2022/09/10 09:58:45;;;;;;;6.28;1.35;;;34.20;88.30;;;;;;5039055;28;20058;-67
2022/09/10 10:02:15;;;;;;;7.03;1.33;;;38.00;82.90;;;;;;5033952;28;20040;-68
2022/09/10 10:05:25;;;;;;;4.50;1.27;;;37.40;80.40;;;;;;5033846;28;20065;-67
2022/09/10 10:08:30;;;;;;;4.50;1.20;;;36.10;81.30;;;;;;5032807;28;20044;-68
2022/09/10 10:11:49;;;;;;;6.35;1.33;;;35.30;82.20;;;;;;5034141;28;20036;-68
2022/09/10 10:14:53;;;;;;;6.10;1.67;;;36.90;82.10;;;;;;5033579;28;20048;-68
2022/09/10 10:17:57;;;;;;;8.27;1.85;;;32.70;83.40;;;;;;5033594;28;20040;-68
2022/09/10 10:21:28;;;;;;;8.65;1.40;;;30.30;90.00;;;;;;5033813;28;20507;-67
2022/09/10 10:24:33;;;;;;;5.45;1.33;;;34.30;89.60;;;;;;5033179;28;20045;-69
2022/09/10 10:27:42;;;;;;;4.80;1.38;;;36.70;87.60;;;;;;5033394;28;20498;-68
2022/09/10 10:30:54;;;;;;;10.15;1.60;;;39.50;83.70;;;;;;5033946;28;20068;-68
2022/09/10 10:33:58;;;;;;;11.55;1.60;;;41.30;79.90;;;;;;5033260;28;20049;-68
2022/09/10 10:37:02;;;;;;;5.53;1.25;;;40.50;79.70;;;;;;5033957;28;20052;-68
2022/09/10 10:40:13;;;;;;;8.30;1.45;;;41.80;79.50;;;;;;5032451;28;20045;-69
2022/09/10 10:43:35;;;;;;;12.38;1.42;;;41.30;77.60;;;;;;5033290;28;20044;-68
2022/09/10 10:47:05;;;;;;;8.00;1.63;;;38.60;80.10;;;;;;5031926;28;20052;-69
2022/09/10 10:50:12;;;;;;;10.73;1.80;;;36.40;82.90;;;;;;5032342;28;20384;-68
2022/09/10 10:53:19;;;;;;;9.25;2.00;;;34.90;84.30;;;;;;5031972;28;20496;-67
2022/09/10 10:57:11;;;;;;;11.23;1.95;;;33.80;86.10;;;;;;5032690;28;20495;-67
2022/09/10 11:00:16;;;;;;;;;;;32.70;88.20;;;;;;4971569;28;20054;-67
2022/09/10 11:03:30;;;;;;;10.73;1.42;;;31.80;87.40;;;;;;4962165;28;19914;-66
2022/09/10 11:06:39;;;;;;;10.45;1.77;;;29.50;86.80;;;;;;5032138;28;20057;-68
2022/09/10 11:10:10;;;;;;;9.10;1.83;;;31.00;85.50;;;;;;5032074;28;20388;-69
2022/09/10 11:13:50;;;;;;;7.95;1.67;;;31.50;82.80;;;;;;5032202;28;20040;-67
2022/09/10 11:17:15;;;;;;;4.22;1.00;;;31.70;79.70;;;;;;5031974;28;20049;-67
2022/09/10 11:20:28;;;;;;;6.70;1.00;;;33.20;80.00;;;;;;5032372;28;20071;-68
2022/09/10 11:23:34;;;;;;;6.65;1.00;;;33.60;75.50;;;;;;5031170;28;20045;-68
2022/09/10 11:26:42;;;;;;;6.45;0.90;;;33.90;77.30;;;;;;5032020;28;20044;-68
2022/09/10 11:29:53;;;;;;;5.70;1.30;;;33.40;77.90;;;;;;5031677;28;20068;-68
2022/09/10 11:33:08;;;;;;;8.52;1.27;;;31.90;78.10;;;;;;5031311;28;20045;-68
2022/09/10 11:36:41;;;;;;;7.50;1.30;;;31.60;79.30;;;;;;5031545;28;20041;-67
2022/09/10 11:40:11;;;;;;;8.48;1.40;;;30.80;80.10;;;;;;5031095;28;20125;-68
2022/09/10 11:43:52;;;;;;;7.55;1.60;;;32.00;80.20;;;;;;5031345;28;20076;-68
2022/09/10 11:47:19;;;;;;;4.57;1.15;;;31.10;80.40;;;;;;5031576;28;20048;-65
2022/09/10 11:50:33;;;;;;;6.47;0.98;;;32.10;81.10;;;;;;5031510;28;20048;-67
2022/09/10 11:53:57;;;;;;;4.05;0.88;;;32.10;74.40;;;;;;5029866;28;20452;-67
2022/09/10 11:57:12;;;;;;;6.78;0.98;;;30.60;77.50;;;;;;5031112;28;20045;-67
2022/09/10 12:00:18;;;;;;;6.32;1.00;;;29.10;78.30;;;;;;5031120;28;20040;-67
2022/09/10 12:03:31;;;;;;;6.60;1.70;;;28.90;80.20;;;;;;5030933;28;20045;-66
2022/09/10 12:07:19;;;;;;;3.03;0.98;;;29.10;80.80;;;;;;5031560;28;20041;-67
2022/09/10 12:10:53;;;;;;;4.90;1.20;;;28.60;82.90;;;;;;5031190;28;20036;-68
2022/09/10 12:13:58;;;;;;;5.93;1.20;;;27.90;82.40;;;;;;5030652;28;20230;-67
2022/09/10 12:17:16;;;;;;;10.30;2.35;;;28.30;83.30;;;;;;5031099;28;20380;-67
2022/09/10 12:20:29;;;;;;;6.07;0.90;;;28.40;82.60;;;;;;5030722;28;20049;-66
2022/09/10 12:23:38;;;;;;;5.30;1.02;;;27.80;83.30;;;;;;5030220;28;20056;-67
2022/09/10 12:27:04;;;;;;;9.57;1.20;;;28.40;84.30;;;;;;5031093;28;20041;-66
2022/09/10 12:30:32;;;;;;;5.47;1.30;;;28.80;83.30;;;;;;5030528;28;20065;-66
2022/09/10 12:33:42;;;;;;;3.97;0.93;;;29.40;81.90;;;;;;5029825;28;20404;-66
2022/09/10 12:36:49;;;;;;;5.30;1.13;;;28.80;80.60;;;;;;5030725;28;20040;-67
2022/09/10 12:40:24;;;;;;;8.80;1.27;;;29.90;81.50;;;;;;5029811;28;20523;-68
2022/09/10 12:43:40;;;;;;;5.93;1.52;;;30.30;81.50;;;;;;5029787;28;20040;-67
2022/09/10 12:46:44;;;;;;;9.75;1.67;;;30.70;80.70;;;;;;5030996;28;20048;-67
2022/09/10 12:49:58;;;;;;;4.75;0.93;;;28.70;81.80;;;;;;5030027;28;20041;-68
2022/09/10 12:53:30;;;;;;;4.78;1.20;;;29.20;81.90;;;;;;5030987;28;20041;-68
2022/09/10 12:56:40;;;;;;;7.15;1.38;;;30.90;80.20;;;;;;5029916;28;20056;-68
2022/09/10 13:00:15;;;;;;;5.20;1.08;;;33.10;79.00;;;;;;5030361;28;20052;-68
2022/09/10 13:03:20;;;;;;;8.32;1.40;;;32.00;77.20;;;;;;5029475;28;20049;-67
2022/09/10 13:17:50;;;;;;;7.88;1.23;;;33.10;76.70;;;;;;5029983;28;20045;-68
2022/09/10 13:20:54;;;;;;;5.90;1.20;;;34.00;75.20;;;;;;5030272;28;20049;-67
2022/09/10 13:23:58;;;;;;;5.20;1.27;;;32.60;77.50;;;;;;5029091;28;20052;-67
2022/09/10 13:30:34;;;;;;;8.00;1.38;;;35.20;76.90;;;;;;5030039;28;20523;-69
2022/09/10 13:33:53;;;;;;;11.77;1.50;;;37.00;75.10;;;;;;5029550;28;20515;-68
2022/09/10 13:37:32;;;;;;;10.10;1.50;;;37.10;74.80;;;;;;5029459;28;20503;-67
2022/09/10 13:41:14;;;;;;;7.95;1.50;;;35.20;74.70;;;;;;5029745;28;20045;-68
2022/09/10 13:44:45;;;;;;;9.15;1.50;;;33.80;77.10;;;;;;5029080;28;20518;-68
2022/09/10 13:48:05;;;;;;;6.30;1.33;;;36.30;75.60;;;;;;5029781;28;20408;-68
2022/09/10 13:51:12;;;;;;;6.20;1.63;;;34.40;74.50;;;;;;5029620;28;20064;-67
2022/09/10 13:54:38;;;;;;;5.90;1.27;;;33.50;75.80;;;;;;5029452;28;20040;-68
2022/09/10 13:57:46;;;;;;;6.28;1.35;;;34.70;78.00;;;;;;5030030;28;20057;-68
2022/09/10 14:01:09;;;;;;;6.55;1.30;;;34.30;77.30;;;;;;5029717;28;20388;-68
2022/09/10 14:08:11;;;;;;;6.38;1.60;;;34.00;77.10;;;;;;5029615;28;20049;-67
2022/09/10 14:11:20;;;;;;;10.15;1.40;;;32.70;78.70;;;;;;5029972;28;20056;-68
2022/09/10 14:14:29;;;;;;;8.40;1.30;;;33.10;77.70;;;;;;5028865;28;20049;-68
2022/09/10 14:17:56;;;;;;;8.25;1.40;;;31.90;79.30;;;;;;5033458;28;20044;-67
2022/09/10 14:21:25;;;;;;;8.30;1.15;;;32.80;78.80;;;;;;5033104;28;20048;-67
2022/09/10 14:24:38;;;;;;;10.50;1.60;;;30.80;80.00;;;;;;5032565;28;20048;-68
2022/09/10 14:27:42;;;;;;;5.35;1.48;;;31.40;82.00;;;;;;5033146;28;20384;-67
2022/09/10 14:30:48;;;;;;;5.40;1.20;;;30.50;80.10;;;;;;5032679;28;20040;-68
2022/09/10 14:33:57;;;;;;;5.80;1.52;;;30.00;81.70;;;;;;5032707;28;20384;-68
2022/09/10 14:37:24;;;;;;;11.07;1.75;;;31.10;81.60;;;;;;5033144;28;20044;-66
2022/09/10 14:40:35;;;;;;;13.18;1.58;;;31.90;81.20;;;;;;5032400;28;20053;-67
2022/09/10 14:43:39;;;;;;;8.30;1.50;;;32.10;80.20;;;;;;5032412;28;20053;-67
2022/09/10 14:46:57;;;;;;;6.13;1.85;;;32.00;79.60;;;;;;5032821;28;20049;-66
2022/09/10 14:50:42;;;;;;;7.50;1.23;;;30.20;81.20;;;;;;5032542;28;20388;-67
2022/09/10 14:53:57;;;;;;;5.85;1.23;;;30.90;80.00;;;;;;5032062;28;20041;-68
2022/09/10 14:57:26;;;;;;;11.75;1.50;;;30.80;80.00;;;;;;5032226;28;20045;-67
2022/09/10 15:00:31;;;;;;;10.20;1.10;;;29.80;82.50;;;;;;5032633;28;20049;-66
2022/09/10 15:03:37;;;;;;;7.40;1.50;;;28.80;82.90;;;;;;5032110;28;20048;-67
2022/09/10 15:07:01;;;;;;;8.13;1.35;;;29.10;82.10;;;;;;5031865;28;20053;-68
2022/09/10 15:13:30;;;;;;;12.35;1.80;;;27.50;85.60;;;;;;5031573;28;20052;-68
2022/09/10 15:16:35;;;;;;;9.20;1.40;;;27.60;85.50;;;;;;5032055;28;20053;-68
2022/09/10 15:19:41;;;;;;;8.13;1.30;;;27.80;85.40;;;;;;5030997;28;20060;-66
2022/09/10 15:22:45;;;;;;;6.05;1.30;;;27.90;85.20;;;;;;5031913;28;20048;-67
2022/09/10 15:25:50;;;;;;;9.00;1.45;;;27.80;84.90;;;;;;5032386;28;20037;-68
2022/09/10 15:29:13;;;;;;;8.13;1.33;;;27.60;84.20;;;;;;5031688;28;20050;-68
2022/09/10 15:32:17;;;;;;;6.93;1.50;;;27.40;86.40;;;;;;5030437;28;20040;-68
2022/09/10 15:35:24;;;;;;;9.00;1.75;;;27.80;85.80;;;;;;5031645;28;20049;-68
2022/09/10 15:38:30;;;;;;;5.30;1.02;;;27.70;86.20;;;;;;5031598;28;20040;-67
2022/09/10 15:41:39;;;;;;;9.73;1.50;;;27.70;86.70;;;;;;5032216;28;20048;-67
2022/09/10 15:44:44;;;;;;;8.38;1.25;;;27.30;86.40;;;;;;5031057;28;20048;-68
2022/09/10 15:47:48;;;;;;;5.15;1.35;;;27.00;88.60;;;;;;5031632;28;20056;-68
2022/09/10 15:50:55;;;;;;;11.77;2.20;;;27.50;87.40;;;;;;5031706;28;20049;-68
2022/09/10 15:53:59;;;;;;;5.22;1.15;;;27.50;88.00;;;;;;5030990;28;20459;-68
2022/09/10 15:57:03;;;;;;;7.93;1.30;;;27.10;88.00;;;;;;5031713;28;20044;-66
2022/09/10 16:00:07;;;;;;;14.07;1.65;;;26.80;89.30;;;;;;5031358;28;20052;-68
2022/09/10 16:03:12;;;;;;;11.80;1.90;;;26.70;91.00;;;;;;5031186;28;20060;-68
2022/09/10 16:06:19;;;;;;;7.43;1.70;;;27.20;91.40;;;;;;5031271;28;20052;-68
2022/09/10 16:09:23;;;;;;;6.18;1.55;;;27.80;90.50;;;;;;5030262;28;20047;-67
2022/09/10 16:12:27;;;;;;;9.18;1.42;;;28.00;89.40;;;;;;5031353;28;20131;-67
2022/09/10 16:15:31;;;;;;;10.00;1.30;;;28.00;89.80;;;;;;5030327;28;20045;-67
2022/09/10 16:18:35;;;;;;;9.45;1.58;;;27.80;88.60;;;;;;5030154;28;20487;-69
2022/09/10 16:21:39;;;;;;;6.13;1.88;;;27.60;89.70;;;;;;5031269;28;20064;-67
2022/09/10 16:25:06;;;;;;;11.38;1.55;;;27.20;90.40;;;;;;5030383;28;20072;-69
2022/09/10 16:28:09;;;;;;;7.75;1.60;;;27.10;91.10;;;;;;5030853;28;20048;-68
2022/09/10 16:31:17;;;;;;;11.93;1.58;;;27.00;91.50;;;;;;5030017;28;20044;-68
2022/09/10 16:34:22;;;;;;;11.27;1.85;;;26.80;91.50;;;;;;5030425;28;20040;-68
2022/09/10 16:37:26;;;;;;;11.27;1.48;;;26.60;91.50;;;;;;5030658;28;20096;-69
2022/09/10 16:40:31;;;;;;;12.15;1.80;;;26.50;91.60;;;;;;5030823;28;20048;-68
2022/09/10 16:43:36;;;;;;;6.65;1.83;;;26.40;91.60;;;;;;5030288;28;20475;-69
2022/09/10 16:46:41;;;;;;;5.82;1.30;;;26.40;91.90;;;;;;5027512;28;20056;-69
2022/09/10 16:49:45;;;;;;;12.57;1.95;;;26.30;92.30;;;;;;5030337;28;20036;-69
2022/09/10 16:52:48;;;;;;;11.23;1.80;;;26.10;92.70;;;;;;5030558;28;20049;-69
2022/09/10 16:56:00;;;;;;;5.07;1.27;;;26.00;93.00;;;;;;5030759;28;20044;-68
2022/09/10 16:59:08;;;;;;;12.73;1.67;;;25.90;93.20;;;;;;5030418;28;20526;-69
2022/09/10 17:02:12;;;;;;;15.48;1.85;;;25.60;93.40;;;;;;5030272;28;20037;-69
2022/09/10 17:05:38;;;;;;;10.25;1.92;;;25.40;93.90;;;;;;5029931;28;20052;-68
2022/09/10 17:08:43;;;;;;;11.38;1.90;;;25.20;94.20;;;;;;5029997;28;20044;-68
2022/09/10 17:11:48;;;;;;;12.82;1.85;;;25.00;94.50;;;;;;5030283;28;20506;-68
2022/09/10 17:14:52;;;;;;;7.05;1.33;;;24.80;94.80;;;;;;5029823;28;20048;-69
2022/09/10 17:17:56;;;;;;;7.22;1.42;;;24.60;95.30;;;;;;5029620;28;20041;-69